McGregor, Minnesota
Current Conditions -  °F | °C
As of 3:25 PM on Thursday 23 Oct 2014 (Local Time) from KHZX Reporting Station
Clear Clear  
Wind Chill: 63°   Ceiling: Unl
Heat Index: 63°   Visibility: 10mi
Dew Point: 50°   Wind: 6mph
Humidity: 63%   Direction: 190°S
Pressure: 29.92"   Gusts: NA
Location:  46.61°N, 93.31°W
Report Text: KHZX 232025Z AUTO 19005KT 10SM CLR 17/10 A2992 RMK AO2
Loading
Personal Weather Stations






























Interactive Weather Map
Tropical Storm Tracking
New forecast layout! Learn more

10-Day Weather Forecast

Advertisements
Track Severe Weather on mobile